Nearby METAR Reports

 

KAPA - Denver/Arapahoe, Colorado, USA
Distance from station: ENE 3mi, 4km
Updated: Wed, 08/16/2017 8:53am MDT
Mostly cloudy
Mostly cloudy
 Wind from ENE
Wind: ENE 6 mph , 9 km/h
Temperature: 63°F , 17°C
Dew Point: 48°F , 9°C
Humidity: 59%
Barometer: 30.15 inHg , 1021 hPa
Clouds: Mostly cloudy
Visibility: 10 miles , 16 km
Cloud details: Partly cloudy 9000 ft
Mostly cloudy 14000 ft
Mostly cloudy 22000 ft
2017/08/16 14:53 KAPA 161453Z 06005KT 10SM SCT090 BKN140 BKN220 17/09 A3015 RMK AO2 SLP158 T01720089 51013
KBKF - Buckley Angb/Den, Colorado, USA
Distance from station: NE 14mi, 22km
Updated: Wed, 08/16/2017 7:58am MDT
Mostly cloudy
Mostly cloudy
 Wind from E
Wind: E 6 mph , 9 km/h
Temperature: 61°F , 16°C
Dew Point: 52°F , 11°C
Humidity: 72%
Barometer: 30.14 inHg , 1020.7 hPa
Clouds: Mostly cloudy
Visibility: 10 miles , 16 km
Cloud details: Partly cloudy 8000 ft
Partly cloudy 11000 ft
Mostly cloudy 22000 ft
2017/08/16 13:58 KBKF 161358Z 10005KT 10SM SCT080 SCT110 BKN220 16/11 A3014 RMK AO2A SLP139 T01560111
 
KDEN - Denver (dia), Colorado, USA
Distance from station: NNE 24mi, 39km
Updated: Wed, 08/16/2017 8:53am MDT
Mostly cloudy
Mostly cloudy
 Wind from ENE
Wind: ENE 6 mph , 9 km/h
Temperature: 63°F , 17°C
Dew Point: 52°F , 11°C
Humidity: 68%
Barometer: 30.13 inHg , 1020.3 hPa
Clouds: Mostly cloudy
Visibility: 10 miles , 16 km
Cloud details: Few Clouds 6000 ft
Partly cloudy 12000 ft
Mostly cloudy 22000 ft
2017/08/16 14:53 KDEN 161453Z 06005KT 10SM FEW060 SCT120 BKN220 17/11 A3013 RMK AO2 SLP148 T01720111 51016
KFTG - Denver F. Range, Colorado, USA
Distance from station: NE 24mi, 39km
Updated: Wed, 08/16/2017 8:54am MDT
Clear
Clear
 Wind from NNE
Wind: NNE 9 mph , 15 km/h
Temperature: 63°F , 17°C
Dew Point: 52°F , 11°C
Humidity: 68%
Barometer: 30.15 inHg , 1021 hPa
Clouds: Clear
Visibility: 10 miles , 16 km
2017/08/16 14:54 KFTG 161454Z AUTO 02008KT 10SM CLR 17/11 A3015 RMK AO2
 
KBJC - Broomfield/Jeffc, Colorado, USA
Distance from station: NNW 26mi, 42km
Updated: Wed, 08/16/2017 8:54am MDT
Clear
Clear
 Wind from SSE
Wind: SSE 5 mph , 7 km/h
Temperature: 64°F , 18°C
Dew Point: 52°F , 11°C
Humidity: 64%
Barometer: 30.15 inHg , 1021 hPa
Clouds: Clear
Visibility: 10 miles , 16 km
2017/08/16 14:54 KBJC 161454Z AUTO 15004KT 10SM CLR 18/11 A3015 RMK AO2
KMNH - Monument/Elbert, Colorado, USA
Distance from station: SSE 27mi, 43km
Updated: Wed, 08/16/2017 8:51am MDT
Clear
Clear
 Wind from calm
Wind: Calm
Temperature: 54°F , 12°C
Dew Point: 46°F , 8°C
Humidity: 77%
Barometer: 30.22 inHg , 1023.4 hPa
Clouds: Clear
Visibility: 10 miles , 16 km
2017/08/16 14:51 KMNH 161451Z AUTO 00000KT 10SM CLR 12/08 A3022 RMK AO2
 
KEIK - Erie Muni, Colorado, USA
Distance from station: NNW 33mi, 53km
Updated: Wed, 08/16/2017 8:55am MDT
Mostly cloudy
Mostly cloudy
 Wind from ESE
Wind: ESE 5 mph , 7 km/h
Temperature: 64°F , 18°C
Dew Point: 52°F , 11°C
Humidity: 64%
Barometer: 30.17 inHg , 1021.7 hPa
Clouds: Mostly cloudy
Visibility: 10 miles , 16 km
Cloud details: Mostly cloudy 12000 ft
2017/08/16 14:55 KEIK 161455Z AUTO 11004KT 10SM BKN120 18/11 A3017 RMK AO2 T01830107
KBDU - Boulder Muni, Colorado, USA
Distance from station: NNW 38mi, 60km
Updated: Wed, 08/16/2017 8:36am MDT
Clear
Clear
 Wind from calm
Wind: Calm
Temperature: 64°F , 18°C
Dew Point: 52°F , 11°C
Humidity: 64%
Barometer: 30.12 inHg , 1020 hPa
Clouds: Clear
Visibility: 10 miles , 16 km
2017/08/16 14:36 KBDU 161436Z AUTO 00000KT 10SM CLR 18/11 A3012 RMK AO2
 
KAFF - Usaf Academy/Cos, Colorado, USA
Distance from station: S 41mi, 66km
Updated: Wed, 08/16/2017 7:58am MDT
Overcast
Overcast
 Wind from calm
Wind: Calm
Temperature: 57°F , 14°C
Dew Point: 48°F , 9°C
Humidity: 72%
Barometer: 30.17 inHg , 1021.7 hPa
Clouds: Overcast
Visibility: 10 miles , 16 km
Cloud details: Overcast 7500 ft
2017/08/16 13:58 KAFF 161358Z AUTO 00000KT 10SM OVC075 14/09 A3017 RMK AO2 SLP141 T01410089
KLMO - Longmont/Vbrand, Colorado, USA
Distance from station: NNW 45mi, 72km
Updated: Wed, 08/16/2017 8:55am MDT
Partly cloudy
Partly cloudy
 Wind from SE
Wind: SE 5 mph , 7 km/h
Temperature: 68°F , 20°C
Dew Point: 54°F , 12°C
Humidity: 60%
Barometer: 30.13 inHg , 1020.3 hPa
Clouds: Partly cloudy
Visibility: 7 miles , 11 km
Cloud details: Partly cloudy 12000 ft
2017/08/16 14:55 KLMO 161455Z AUTO 13004KT 7SM SCT120 20/12 A3013 RMK AO2 T01970118
 
KFLY - Co Spngs Meadow, Colorado, USA
Distance from station: SSE 45mi, 73km
Updated: Wed, 08/16/2017 8:55am MDT
Clear
Clear
 Wind from calm
Wind: Calm
Temperature: 59°F , 15°C
Dew Point: 45°F , 7°C
Humidity: 59%
Barometer: 30.22 inHg , 1023.4 hPa
Clouds: Clear
Visibility: 10 miles , 16 km
2017/08/16 14:55 KFLY 161455Z AUTO 00000KT 10SM CLR 15/07 A3022 RMK AO2 T01460073
K4BM - Wilkerson Pass, Colorado, USA
Distance from station: SW 48mi, 77km
Updated: Wed, 08/16/2017 8:54am MDT
Partly cloudy
Partly cloudy
 Wind from W
Wind: W 5 mph , 7 km/h
Temperature: 45°F , 7°C
Wind Chill: 42°F , 6°C
Dew Point: 32°F , 0°C
Humidity: 61%
Barometer: 30.46 inHg , 1031.5 hPa
Clouds: Partly cloudy
Visibility: 10 miles , 16 km
Cloud details: Partly cloudy 9000 ft
2017/08/16 14:54 K4BM 161454Z AUTO 27004KT 10SM SCT090 07/00 A3046 RMK AO2
 
K0CO - Berthoud Pass, Colorado, USA
Distance from station: WNW 49mi, 79km
Updated: Wed, 08/16/2017 9:00am MDT
Haze, Overcast
Haze, Overcast
 Wind from NW
Wind: NW 17 mph , 28 km/h, Gust: 23 mph , 37 km/h
Temperature: 32°F , 0°C
Wind Chill: 21°F , -6°C
Dew Point: 28°F , -2°C
Humidity: 87%
Barometer: 30.47 inHg , 1031.8 hPa
Summary: Haze
Clouds: Overcast
Visibility: less than 1/4 mile , 2 km
Cloud details: Overcast 100 ft
2017/08/16 15:00 K0CO 161500Z AUTO 31015G20KT M1/4SM HZ OVC001 00/M02 A3047 RMK AO2